sensor_id;sensor_type;location;lat;lon;timestamp;pressure;altitude;pressure_sealevel;temperature;humidity
81107;BME280;70588;53.172;8.620;2023-06-22T00:01:49;101793.66;;;23.55;48.55
81107;BME280;70588;53.172;8.620;2023-06-22T00:04:14;101795.81;;;23.53;48.76
81107;BME280;70588;53.172;8.620;2023-06-22T00:06:40;101795.81;;;23.53;48.87
81107;BME280;70588;53.172;8.620;2023-06-22T00:09:05;101800.50;;;23.52;48.58
81107;BME280;70588;53.172;8.620;2023-06-22T00:11:35;101808.19;;;23.50;48.86
81107;BME280;70588;53.172;8.620;2023-06-22T00:14:01;101811.44;;;23.47;48.92
81107;BME280;70588;53.172;8.620;2023-06-22T00:16:27;101813.38;;;23.46;49.08
81107;BME280;70588;53.172;8.620;2023-06-22T00:18:52;101810.63;;;23.46;48.94
81107;BME280;70588;53.172;8.620;2023-06-22T00:21:17;101809.81;;;23.46;49.32
81107;BME280;70588;53.172;8.620;2023-06-22T00:23:45;101813.91;;;23.43;48.99
81107;BME280;70588;53.172;8.620;2023-06-22T00:26:11;101810.28;;;23.43;49.09
81107;BME280;70588;53.172;8.620;2023-06-22T00:28:36;101812.22;;;23.42;49.27
81107;BME280;70588;53.172;8.620;2023-06-22T00:31:02;101809.97;;;23.39;49.21
81107;BME280;70588;53.172;8.620;2023-06-22T00:33:27;101817.41;;;23.39;49.85
81107;BME280;70588;53.172;8.620;2023-06-22T00:35:53;101813.25;;;23.36;49.38
81107;BME280;70588;53.172;8.620;2023-06-22T00:38:19;101802.22;;;23.36;49.58
81107;BME280;70588;53.172;8.620;2023-06-22T00:40:45;101809.91;;;23.34;49.62
81107;BME280;70588;53.172;8.620;2023-06-22T00:43:10;101799.97;;;23.33;49.47
81107;BME280;70588;53.172;8.620;2023-06-22T00:45:36;101805.75;;;23.32;49.56
81107;BME280;70588;53.172;8.620;2023-06-22T00:48:02;101797.72;;;23.30;49.59
81107;BME280;70588;53.172;8.620;2023-06-22T00:50:33;101791.69;;;23.33;49.69
81107;BME280;70588;53.172;8.620;2023-06-22T00:53:00;101796.31;;;23.27;49.93
81107;BME280;70588;53.172;8.620;2023-06-22T00:55:26;101798.75;;;23.24;49.83
81107;BME280;70588;53.172;8.620;2023-06-22T00:57:53;101790.72;;;23.22;49.78
81107;BME280;70588;53.172;8.620;2023-06-22T01:00:24;101796.56;;;23.26;50.00
81107;BME280;70588;53.172;8.620;2023-06-22T01:02:54;101793.81;;;23.26;49.81
81107;BME280;70588;53.172;8.620;2023-06-22T01:05:20;101794.25;;;23.18;49.98
81107;BME280;70588;53.172;8.620;2023-06-22T01:11:05;101786.47;;;23.32;
81107;BME280;70588;53.172;8.620;2023-06-22T01:16:31;101790.97;;;23.21;50.10
81107;BME280;70588;53.172;8.620;2023-06-22T01:19:00;101783.72;;;23.15;50.12
81107;BME280;70588;53.172;8.620;2023-06-22T01:21:28;101785.06;;;23.12;50.20
81107;BME280;70588;53.172;8.620;2023-06-22T01:27:05;101787.41;;;23.20;49.56
81107;BME280;70588;53.172;8.620;2023-06-22T01:29:36;101787.16;;;23.05;50.27
81107;BME280;70588;53.172;8.620;2023-06-22T01:32:04;101784.94;;;23.02;50.37
81107;BME280;70588;53.172;8.620;2023-06-22T01:34:31;101788.72;;;23.01;50.55
81107;BME280;70588;53.172;8.620;2023-06-22T01:36:59;101780.13;;;22.97;50.60
81107;BME280;70588;53.172;8.620;2023-06-22T01:39:26;101784.22;;;22.95;50.51
81107;BME280;70588;53.172;8.620;2023-06-22T01:41:52;101782.00;;;22.92;50.70
81107;BME280;70588;53.172;8.620;2023-06-22T01:44:18;101772.28;;;22.89;50.40
81107;BME280;70588;53.172;8.620;2023-06-22T01:46:44;101773.16;;;22.89;50.46
81107;BME280;70588;53.172;8.620;2023-06-22T01:49:10;101774.47;;;22.87;50.83
81107;BME280;70588;53.172;8.620;2023-06-22T01:51:35;101770.88;;;22.86;50.64
81107;BME280;70588;53.172;8.620;2023-06-22T01:54:01;101764.31;;;22.87;50.54
81107;BME280;70588;53.172;8.620;2023-06-22T01:56:27;101758.47;;;22.84;50.62
81107;BME280;70588;53.172;8.620;2023-06-22T02:01:41;101748.88;;;22.86;50.32
81107;BME280;70588;53.172;8.620;2023-06-22T02:04:12;101752.63;;;22.80;50.67
81107;BME280;70588;53.172;8.620;2023-06-22T02:06:41;101766.00;;;22.72;50.81
81107;BME280;70588;53.172;8.620;2023-06-22T02:09:11;101764.31;;;22.70;50.62
81107;BME280;70588;53.172;8.620;2023-06-22T02:11:38;101756.00;;;22.65;50.90
81107;BME280;70588;53.172;8.620;2023-06-22T02:14:06;101752.91;;;22.62;50.81
81107;BME280;70588;53.172;8.620;2023-06-22T02:16:32;101752.56;;;22.58;50.91
81107;BME280;70588;53.172;8.620;2023-06-22T02:19:01;101763.06;;;22.61;51.18
81107;BME280;70588;53.172;8.620;2023-06-22T02:21:28;101764.91;;;22.56;50.98
81107;BME280;70588;53.172;8.620;2023-06-22T02:23:54;101772.81;;;22.52;50.96
81107;BME280;70588;53.172;8.620;2023-06-22T02:26:19;101770.31;;;22.50;51.21
81107;BME280;70588;53.172;8.620;2023-06-22T02:28:45;101763.41;;;22.48;51.11
81107;BME280;70588;53.172;8.620;2023-06-22T02:31:11;101763.63;;;22.46;51.10
81107;BME280;70588;53.172;8.620;2023-06-22T02:33:36;101773.00;;;22.45;50.99
81107;BME280;70588;53.172;8.620;2023-06-22T02:36:02;101763.28;;;22.43;51.15
81107;BME280;70588;53.172;8.620;2023-06-22T02:38:31;101763.56;;;22.41;51.28
81107;BME280;70588;53.172;8.620;2023-06-22T02:40:58;101756.63;;;22.39;51.37
81107;BME280;70588;53.172;8.620;2023-06-22T02:43:24;101761.06;;;22.40;51.35
81107;BME280;70588;53.172;8.620;2023-06-22T02:45:49;101763.22;;;22.38;51.30
81107;BME280;70588;53.172;8.620;2023-06-22T02:48:14;101762.41;;;22.37;51.36
81107;BME280;70588;53.172;8.620;2023-06-22T02:50:40;101762.63;;;22.36;51.35
81107;BME280;70588;53.172;8.620;2023-06-22T02:53:05;101765.63;;;22.34;51.21
81107;BME280;70588;53.172;8.620;2023-06-22T02:55:30;101771.13;;;22.34;51.31
81107;BME280;70588;53.172;8.620;2023-06-22T02:57:56;101771.38;;;22.33;51.41
81107;BME280;70588;53.172;8.620;2023-06-22T03:00:22;101766.97;;;22.32;51.46
81107;BME280;70588;53.172;8.620;2023-06-22T03:02:49;101766.97;;;22.32;51.50
81107;BME280;70588;53.172;8.620;2023-06-22T03:05:15;101773.53;;;22.30;51.33
81107;BME280;70588;53.172;8.620;2023-06-22T03:07:46;101770.78;;;22.30;51.33
81107;BME280;70588;53.172;8.620;2023-06-22T03:10:13;101780.72;;;22.32;51.57
81107;BME280;70588;53.172;8.620;2023-06-22T03:12:39;101771.03;;;22.29;51.55
81107;BME280;70588;53.172;8.620;2023-06-22T03:15:06;101770.78;;;22.30;51.48
81107;BME280;70588;53.172;8.620;2023-06-22T03:17:32;101775.69;;;22.28;51.54
81107;BME280;70588;53.172;8.620;2023-06-22T03:19:58;101776.53;;;22.29;51.51
81107;BME280;70588;53.172;8.620;2023-06-22T03:22:23;101776.53;;;22.29;51.66
81107;BME280;70588;53.172;8.620;2023-06-22T03:24:49;101777.38;;;22.29;51.71
81107;BME280;70588;53.172;8.620;2023-06-22T03:27:14;101781.19;;;22.28;51.45
81107;BME280;70588;53.172;8.620;2023-06-22T03:29:39;101771.03;;;22.29;51.54
81107;BME280;70588;53.172;8.620;2023-06-22T03:32:05;101773.78;;;22.29;51.57
81107;BME280;70588;53.172;8.620;2023-06-22T03:34:31;101775.13;;;22.26;51.72
81107;BME280;70588;53.172;8.620;2023-06-22T03:36:58;101778.69;;;22.27;51.42
81107;BME280;70588;53.172;8.620;2023-06-22T03:39:24;101785.06;;;22.27;51.47
81107;BME280;70588;53.172;8.620;2023-06-22T03:41:49;101777.03;;;22.26;51.44
81107;BME280;70588;53.172;8.620;2023-06-22T03:44:15;101793.88;;;22.29;51.39
81107;BME280;70588;53.172;8.620;2023-06-22T03:46:40;101790.03;;;22.30;51.40
81107;BME280;70588;53.172;8.620;2023-06-22T03:49:05;101791.72;;;22.32;51.38
81107;BME280;70588;53.172;8.620;2023-06-22T03:51:32;101795.06;;;22.34;50.93
81107;BME280;70588;53.172;8.620;2023-06-22T03:53:58;101784.06;;;22.34;50.95
81107;BME280;70588;53.172;8.620;2023-06-22T03:56:23;101787.63;;;22.34;51.27
81107;BME280;70588;53.172;8.620;2023-06-22T03:58:48;101790.38;;;22.34;50.82
81107;BME280;70588;53.172;8.620;2023-06-22T04:01:14;101798.41;;;22.36;50.84
81107;BME280;70588;53.172;8.620;2023-06-22T04:03:42;101794.81;;;22.35;51.06
81107;BME280;70588;53.172;8.620;2023-06-22T04:06:07;101800.06;;;22.37;50.90
81107;BME280;70588;53.172;8.620;2023-06-22T04:08:33;101797.88;;;22.39;50.95
81107;BME280;70588;53.172;8.620;2023-06-22T04:10:58;101792.16;;;22.40;50.92
81107;BME280;70588;53.172;8.620;2023-06-22T04:13:23;101805.16;;;22.45;51.03
81107;BME280;70588;53.172;8.620;2023-06-22T04:15:49;101804.06;;;22.46;50.64
81107;BME280;70588;53.172;8.620;2023-06-22T04:18:14;101813.50;;;22.50;50.67
81107;BME280;70588;53.172;8.620;2023-06-22T04:20:39;101810.50;;;22.52;50.56
81107;BME280;70588;53.172;8.620;2023-06-22T04:23:05;101813.84;;;22.54;50.55
81107;BME280;70588;53.172;8.620;2023-06-22T04:25:30;101815.25;;;22.56;50.37
81107;BME280;70588;53.172;8.620;2023-06-22T04:27:56;101817.53;;;22.59;50.19
81107;BME280;70588;53.172;8.620;2023-06-22T04:30:21;101806.25;;;22.61;50.34
81107;BME280;70588;53.172;8.620;2023-06-22T04:32:47;101808.53;;;22.64;50.12
81107;BME280;70588;53.172;8.620;2023-06-22T04:35:21;101803.84;;;22.64;50.10
81107;BME280;70588;53.172;8.620;2023-06-22T04:37:47;101809.09;;;22.66;50.33
81107;BME280;70588;53.172;8.620;2023-06-22T04:40:15;101808.84;;;22.67;50.21
81107;BME280;70588;53.172;8.620;2023-06-22T04:42:40;101812.78;;;22.72;50.26
81107;BME280;70588;53.172;8.620;2023-06-22T04:45:06;101802.94;;;22.76;50.24
81107;BME280;70588;53.172;8.620;2023-06-22T04:47:31;101793.69;;;22.82;50.19
81107;BME280;70588;53.172;8.620;2023-06-22T04:49:57;101801.75;;;22.88;50.26
81107;BME280;70588;53.172;8.620;2023-06-22T04:52:22;101804.91;;;22.97;49.97
81107;BME280;70588;53.172;8.620;2023-06-22T04:54:48;101805.03;;;23.02;49.74
81107;BME280;70588;53.172;8.620;2023-06-22T04:57:14;101810.63;;;23.07;49.79
81107;BME280;70588;53.172;8.620;2023-06-22T04:59:41;101809.44;;;23.20;49.20
81107;BME280;70588;53.172;8.620;2023-06-22T05:02:07;101808.66;;;23.25;49.46
81107;BME280;70588;53.172;8.620;2023-06-22T05:04:33;101803.28;;;23.35;49.22
81107;BME280;70588;53.172;8.620;2023-06-22T05:07:01;101807.94;;;23.52;49.15
81107;BME280;70588;53.172;8.620;2023-06-22T05:09:28;101801.72;;;23.61;48.85
81107;BME280;70588;53.172;8.620;2023-06-22T05:11:54;101806.59;;;23.76;48.60
81107;BME280;70588;53.172;8.620;2023-06-22T05:14:19;101799.16;;;23.99;47.96
81107;BME280;70588;53.172;8.620;2023-06-22T05:16:45;101796.63;;;24.19;48.22
81107;BME280;70588;53.172;8.620;2023-06-22T05:19:11;101788.75;;;24.33;47.79
81107;BME280;70588;53.172;8.620;2023-06-22T05:21:37;101805.56;;;24.54;47.64
81107;BME280;70588;53.172;8.620;2023-06-22T05:24:03;101804.78;;;24.63;47.40
81107;BME280;70588;53.172;8.620;2023-06-22T05:26:30;101810.44;;;24.79;47.03
81107;BME280;70588;53.172;8.620;2023-06-22T05:28:56;101795.06;;;24.88;46.74
81107;BME280;70588;53.172;8.620;2023-06-22T05:31:22;101795.91;;;24.94;46.71
81107;BME280;70588;53.172;8.620;2023-06-22T05:33:50;101791.25;;;24.99;46.05
81107;BME280;70588;53.172;8.620;2023-06-22T05:36:16;101795.44;;;25.02;45.60
81107;BME280;70588;53.172;8.620;2023-06-22T05:38:42;101796.84;;;25.04;46.20
81107;BME280;70588;53.172;8.620;2023-06-22T05:41:07;101795.72;;;25.05;46.10
81107;BME280;70588;53.172;8.620;2023-06-22T05:43:33;101799.59;;;25.04;45.97
81107;BME280;70588;53.172;8.620;2023-06-22T05:46:00;101801.25;;;25.05;46.21
81107;BME280;70588;53.172;8.620;2023-06-22T05:48:26;101797.91;;;24.98;45.82
81107;BME280;70588;53.172;8.620;2023-06-22T05:50:51;101792.06;;;24.95;46.07
81107;BME280;70588;53.172;8.620;2023-06-22T05:53:17;101792.88;;;24.90;46.29
81107;BME280;70588;53.172;8.620;2023-06-22T05:55:42;101797.28;;;24.86;46.35
81107;BME280;70588;53.172;8.620;2023-06-22T05:58:08;101799.72;;;24.82;46.34
81107;BME280;70588;53.172;8.620;2023-06-22T06:00:34;101797.47;;;24.79;46.71
81107;BME280;70588;53.172;8.620;2023-06-22T06:02:59;101797.47;;;24.79;46.84
81107;BME280;70588;53.172;8.620;2023-06-22T06:05:31;101795.06;;;24.88;46.60
81107;BME280;70588;53.172;8.620;2023-06-22T06:07:57;101796.41;;;24.85;46.73
81107;BME280;70588;53.172;8.620;2023-06-22T06:10:23;101796.78;;;24.94;46.97
81107;BME280;70588;53.172;8.620;2023-06-22T06:12:49;101795.78;;;25.11;47.23
81107;BME280;70588;53.172;8.620;2023-06-22T06:15:14;101794.84;;;25.32;47.02
81107;BME280;70588;53.172;8.620;2023-06-22T06:17:50;101800.78;;;25.66;45.83
81107;BME280;70588;53.172;8.620;2023-06-22T06:20:18;101803.63;;;25.87;45.99
81107;BME280;70588;53.172;8.620;2023-06-22T06:22:44;101792.38;;;26.09;45.03
81107;BME280;70588;53.172;8.620;2023-06-22T06:25:09;101792.44;;;26.35;44.52
81107;BME280;70588;53.172;8.620;2023-06-22T06:27:35;101785.56;;;26.63;44.33
81107;BME280;70588;53.172;8.620;2023-06-22T06:30:00;101789.13;;;26.94;43.82
81107;BME280;70588;53.172;8.620;2023-06-22T06:32:27;101794.63;;;27.25;42.92
81107;BME280;70588;53.172;8.620;2023-06-22T06:34:52;101797.03;;;27.57;42.75
81107;BME280;70588;53.172;8.620;2023-06-22T06:37:17;101789.13;;;27.85;41.07
81107;BME280;70588;53.172;8.620;2023-06-22T06:39:44;101791.53;;;28.07;40.01
81107;BME280;70588;53.172;8.620;2023-06-22T06:42:09;101791.38;;;28.28;39.93
81107;BME280;70588;53.172;8.620;2023-06-22T06:44:36;101790.41;;;28.48;38.61
81107;BME280;70588;53.172;8.620;2023-06-22T06:47:03;101793.63;;;28.65;38.58
81107;BME280;70588;53.172;8.620;2023-06-22T06:49:29;101799.88;;;28.81;37.96
81107;BME280;70588;53.172;8.620;2023-06-22T06:51:54;101797.53;;;28.93;37.36
81107;BME280;70588;53.172;8.620;2023-06-22T06:54:21;101790.22;;;29.02;36.78
81107;BME280;70588;53.172;8.620;2023-06-22T06:56:46;101799.59;;;29.12;37.17
81107;BME280;70588;53.172;8.620;2023-06-22T06:59:13;101797.31;;;29.19;36.98
81107;BME280;70588;53.172;8.620;2023-06-22T07:01:39;101797.25;;;29.24;36.15
81107;BME280;70588;53.172;8.620;2023-06-22T07:04:04;101795.28;;;29.24;35.27
81107;BME280;70588;53.172;8.620;2023-06-22T07:06:30;101797.84;;;29.21;35.71
81107;BME280;70588;53.172;8.620;2023-06-22T07:08:57;101793.47;;;29.15;35.20
81107;BME280;70588;53.172;8.620;2023-06-22T07:11:22;101786.81;;;29.11;35.59
81107;BME280;70588;53.172;8.620;2023-06-22T07:13:48;101792.41;;;29.06;35.38
81107;BME280;70588;53.172;8.620;2023-06-22T07:16:13;101793.59;;;28.99;35.56
81107;BME280;70588;53.172;8.620;2023-06-22T07:18:39;101788.38;;;28.93;35.75
81107;BME280;70588;53.172;8.620;2023-06-22T07:21:05;101789.25;;;28.88;35.67
81107;BME280;70588;53.172;8.620;2023-06-22T07:23:32;101788.16;;;28.84;35.06
81107;BME280;70588;53.172;8.620;2023-06-22T07:25:57;101791.84;;;28.79;35.02
81107;BME280;70588;53.172;8.620;2023-06-22T07:28:23;101786.31;;;28.74;35.54
81107;BME280;70588;53.172;8.620;2023-06-22T07:30:48;101782.78;;;28.69;35.49
81107;BME280;70588;53.172;8.620;2023-06-22T07:33:13;101778.06;;;28.64;35.68
81107;BME280;70588;53.172;8.620;2023-06-22T07:35:39;101793.66;;;28.60;34.89
81107;BME280;70588;53.172;8.620;2023-06-22T07:38:04;101786.22;;;28.55;34.88
81107;BME280;70588;53.172;8.620;2023-06-22T07:40:30;101794.00;;;28.53;35.37
81107;BME280;70588;53.172;8.620;2023-06-22T07:42:55;101786.25;;;28.50;35.32
81107;BME280;70588;53.172;8.620;2023-06-22T07:45:21;101781.78;;;28.49;35.38
81107;BME280;70588;53.172;8.620;2023-06-22T07:47:46;101782.63;;;28.50;35.55
81107;BME280;70588;53.172;8.620;2023-06-22T07:50:12;101784.03;;;28.47;35.50
81107;BME280;70588;53.172;8.620;2023-06-22T07:52:41;101777.94;;;28.45;35.35
81107;BME280;70588;53.172;8.620;2023-06-22T07:55:07;101778.50;;;28.42;35.08
81107;BME280;70588;53.172;8.620;2023-06-22T07:57:32;101774.66;;;28.38;35.28
81107;BME280;70588;53.172;8.620;2023-06-22T07:59:59;101774.94;;;28.36;35.66
81107;BME280;70588;53.172;8.620;2023-06-22T08:02:25;101768.03;;;28.34;35.71
81107;BME280;70588;53.172;8.620;2023-06-22T08:04:51;101773.81;;;28.37;36.23
81107;BME280;70588;53.172;8.620;2023-06-22T08:07:16;101763.81;;;28.36;35.25
81107;BME280;70588;53.172;8.620;2023-06-22T08:09:47;101762.72;;;28.37;35.31
81107;BME280;70588;53.172;8.620;2023-06-22T08:12:13;101757.50;;;28.31;35.45
81107;BME280;70588;53.172;8.620;2023-06-22T08:14:39;101755.28;;;28.28;35.75
81107;BME280;70588;53.172;8.620;2023-06-22T08:17:05;101757.78;;;28.29;35.27
81107;BME280;70588;53.172;8.620;2023-06-22T08:19:30;101760.84;;;28.28;34.60
81107;BME280;70588;53.172;8.620;2023-06-22T08:21:56;101756.44;;;28.27;34.73
81107;BME280;70588;53.172;8.620;2023-06-22T08:24:22;101753.13;;;28.24;35.33
81107;BME280;70588;53.172;8.620;2023-06-22T08:26:51;101754.19;;;28.29;35.56
81107;BME280;70588;53.172;8.620;2023-06-22T08:29:16;101742.56;;;28.21;35.70
81107;BME280;70588;53.172;8.620;2023-06-22T08:31:42;101748.13;;;28.21;35.65
81107;BME280;70588;53.172;8.620;2023-06-22T08:34:07;101736.75;;;28.23;35.63
81107;BME280;70588;53.172;8.620;2023-06-22T08:36:33;101755.03;;;28.24;35.35
81107;BME280;70588;53.172;8.620;2023-06-22T08:39:06;101740.09;;;28.20;35.57
81107;BME280;70588;53.172;8.620;2023-06-22T08:41:32;101741.75;;;28.21;35.62
81107;BME280;70588;53.172;8.620;2023-06-22T08:43:57;101735.34;;;28.20;35.73
81107;BME280;70588;53.172;8.620;2023-06-22T08:46:23;101740.91;;;28.20;35.45
81107;BME280;70588;53.172;8.620;2023-06-22T08:48:55;101733.13;;;28.22;35.83
81107;BME280;70588;53.172;8.620;2023-06-22T08:51:21;101728.41;;;28.23;35.88
81107;BME280;70588;53.172;8.620;2023-06-22T08:53:46;101728.41;;;28.23;35.67
81107;BME280;70588;53.172;8.620;2023-06-22T08:56:12;101727.81;;;28.26;36.07
81107;BME280;70588;53.172;8.620;2023-06-22T08:58:37;101727.00;;;28.25;35.99
81107;BME280;70588;53.172;8.620;2023-06-22T09:01:02;101730.31;;;28.28;36.00
81107;BME280;70588;53.172;8.620;2023-06-22T09:03:28;101722.53;;;28.30;35.25
81107;BME280;70588;53.172;8.620;2023-06-22T09:05:53;101718.63;;;28.31;35.84
81107;BME280;70588;53.172;8.620;2023-06-22T09:08:19;101723.06;;;28.32;35.55
81107;BME280;70588;53.172;8.620;2023-06-22T09:10:44;101716.41;;;28.33;35.77
81107;BME280;70588;53.172;8.620;2023-06-22T09:13:10;101720.00;;;28.33;35.66
81107;BME280;70588;53.172;8.620;2023-06-22T09:15:35;101715.22;;;28.39;35.59
81107;BME280;70588;53.172;8.620;2023-06-22T09:18:01;101721.31;;;28.41;36.05
81107;BME280;70588;53.172;8.620;2023-06-22T09:20:26;101720.44;;;28.45;36.01
81107;BME280;70588;53.172;8.620;2023-06-22T09:22:52;101722.94;;;28.47;35.61
81107;BME280;70588;53.172;8.620;2023-06-22T09:25:17;101719.03;;;28.53;35.41
81107;BME280;70588;53.172;8.620;2023-06-22T09:27:46;101717.31;;;28.57;35.59
81107;BME280;70588;53.172;8.620;2023-06-22T09:30:11;101718.09;;;28.63;35.72
81107;BME280;70588;53.172;8.620;2023-06-22T09:32:37;101706.09;;;28.68;35.82
81107;BME280;70588;53.172;8.620;2023-06-22T09:35:04;101704.38;;;28.72;35.73
81107;BME280;70588;53.172;8.620;2023-06-22T09:37:30;101699.44;;;28.69;35.15
81107;BME280;70588;53.172;8.620;2023-06-22T09:39:56;101703.06;;;28.64;35.31
81107;BME280;70588;53.172;8.620;2023-06-22T09:42:21;101707.00;;;28.63;35.39
81107;BME280;70588;53.172;8.620;2023-06-22T09:44:47;101689.78;;;28.61;35.64
81107;BME280;70588;53.172;8.620;2023-06-22T09:47:12;101683.38;;;28.60;35.43
81107;BME280;70588;53.172;8.620;2023-06-22T09:49:37;101688.13;;;28.60;35.72
81107;BME280;70588;53.172;8.620;2023-06-22T09:52:03;101682.56;;;28.60;35.75
81107;BME280;70588;53.172;8.620;2023-06-22T09:54:28;101687.28;;;28.59;35.86
81107;BME280;70588;53.172;8.620;2023-06-22T09:56:54;101690.88;;;28.60;35.52
81107;BME280;70588;53.172;8.620;2023-06-22T09:59:19;101684.81;;;28.58;35.59
81107;BME280;70588;53.172;8.620;2023-06-22T10:01:45;101678.13;;;28.59;35.92
81107;BME280;70588;53.172;8.620;2023-06-22T10:04:10;101678.97;;;28.59;35.91
81107;BME280;70588;53.172;8.620;2023-06-22T10:06:35;101660.34;;;28.60;36.06
81107;BME280;70588;53.172;8.620;2023-06-22T10:09:01;101665.59;;;28.61;36.11
81107;BME280;70588;53.172;8.620;2023-06-22T10:11:26;101666.97;;;28.64;36.09
81107;BME280;70588;53.172;8.620;2023-06-22T10:13:55;101663.91;;;28.66;35.70
81107;BME280;70588;53.172;8.620;2023-06-22T10:16:20;101649.19;;;28.65;35.99
81107;BME280;70588;53.172;8.620;2023-06-22T10:18:46;101656.34;;;28.71;36.02
81107;BME280;70588;53.172;8.620;2023-06-22T10:21:11;101648.53;;;28.73;36.14
81107;BME280;70588;53.172;8.620;2023-06-22T10:23:36;101659.03;;;28.76;36.01
81107;BME280;70588;53.172;8.620;2023-06-22T10:26:02;101650.41;;;28.78;35.89
81107;BME280;70588;53.172;8.620;2023-06-22T10:28:27;101651.25;;;28.78;35.88
81107;BME280;70588;53.172;8.620;2023-06-22T10:30:53;101651.25;;;28.78;36.23
81107;BME280;70588;53.172;8.620;2023-06-22T10:33:18;101648.16;;;28.80;36.16
81107;BME280;70588;53.172;8.620;2023-06-22T10:35:44;101639.00;;;28.79;36.47
81107;BME280;70588;53.172;8.620;2023-06-22T10:38:09;101649.31;;;28.79;36.58
81107;BME280;70588;53.172;8.620;2023-06-22T10:40:35;101641.78;;;28.79;36.27
81107;BME280;70588;53.172;8.620;2023-06-22T10:43:00;101649.31;;;28.79;36.41
81107;BME280;70588;53.172;8.620;2023-06-22T10:45:26;101643.44;;;28.80;36.70
81107;BME280;70588;53.172;8.620;2023-06-22T10:47:52;101638.72;;;28.81;36.76
81107;BME280;70588;53.172;8.620;2023-06-22T10:50:17;101640.91;;;28.84;36.24
81107;BME280;70588;53.172;8.620;2023-06-22T10:52:43;101636.69;;;28.87;36.85
81107;BME280;70588;53.172;8.620;2023-06-22T10:55:09;101638.88;;;28.90;36.30
81107;BME280;70588;53.172;8.620;2023-06-22T10:57:34;101641.91;;;28.93;36.71
81107;BME280;70588;53.172;8.620;2023-06-22T11:00:02;101639.91;;;28.99;36.41
81107;BME280;70588;53.172;8.620;2023-06-22T11:02:29;101632.31;;;29.04;36.51
81107;BME280;70588;53.172;8.620;2023-06-22T11:04:54;101640.31;;;29.11;36.57
81107;BME280;70588;53.172;8.620;2023-06-22T11:07:20;101630.78;;;29.17;36.45
81107;BME280;70588;53.172;8.620;2023-06-22T11:09:45;101633.19;;;29.24;36.46
81107;BME280;70588;53.172;8.620;2023-06-22T11:12:11;101633.44;;;29.28;36.84
81107;BME280;70588;53.172;8.620;2023-06-22T11:14:36;101624.72;;;29.34;36.67
81107;BME280;70588;53.172;8.620;2023-06-22T11:17:02;101627.72;;;29.38;36.30
81107;BME280;70588;53.172;8.620;2023-06-22T11:19:27;101622.09;;;29.43;36.30
81107;BME280;70588;53.172;8.620;2023-06-22T11:21:52;101618.41;;;29.48;36.57
81107;BME280;70588;53.172;8.620;2023-06-22T11:24:18;101615.53;;;29.53;36.37
81107;BME280;70588;53.172;8.620;2023-06-22T11:26:43;101618.25;;;29.58;36.80
81107;BME280;70588;53.172;8.620;2023-06-22T11:29:09;101605.69;;;29.60;36.63
81107;BME280;70588;53.172;8.620;2023-06-22T11:31:35;101624.56;;;29.63;36.19
81107;BME280;70588;53.172;8.620;2023-06-22T11:34:01;101605.91;;;29.64;36.24
81107;BME280;70588;53.172;8.620;2023-06-22T11:36:27;101605.91;;;29.64;36.49
81107;BME280;70588;53.172;8.620;2023-06-22T11:38:52;101604.16;;;29.68;36.42
81107;BME280;70588;53.172;8.620;2023-06-22T11:41:18;101595.25;;;29.71;36.35
81107;BME280;70588;53.172;8.620;2023-06-22T11:43:44;101590.75;;;29.75;36.50
81107;BME280;70588;53.172;8.620;2023-06-22T11:46:10;101574.56;;;29.77;36.20
81107;BME280;70588;53.172;8.620;2023-06-22T11:48:35;101574.28;;;29.79;36.21
81107;BME280;70588;53.172;8.620;2023-06-22T11:51:01;101569.53;;;29.79;36.20
81107;BME280;70588;53.172;8.620;2023-06-22T11:53:28;101573.06;;;29.85;36.15
81107;BME280;70588;53.172;8.620;2023-06-22T11:55:53;101559.66;;;29.87;35.99
81107;BME280;70588;53.172;8.620;2023-06-22T11:58:20;101572.94;;;29.90;36.06
81107;BME280;70588;53.172;8.620;2023-06-22T12:00:45;101577.06;;;29.93;35.61
81107;BME280;70588;53.172;8.620;2023-06-22T12:03:11;101575.97;;;29.94;35.61
81107;BME280;70588;53.172;8.620;2023-06-22T12:05:37;101571.72;;;29.96;35.83
81107;BME280;70588;53.172;8.620;2023-06-22T12:08:03;101574.22;;;29.98;36.02
81107;BME280;70588;53.172;8.620;2023-06-22T12:10:29;101570.84;;;30.01;35.63
81107;BME280;70588;53.172;8.620;2023-06-22T12:12:54;101585.28;;;30.03;35.62
81107;BME280;70588;53.172;8.620;2023-06-22T12:15:19;101571.88;;;30.05;35.34
81107;BME280;70588;53.172;8.620;2023-06-22T12:17:45;101564.84;;;30.08;35.24
81107;BME280;70588;53.172;8.620;2023-06-22T12:20:13;101559.00;;;30.09;35.49
81107;BME280;70588;53.172;8.620;2023-06-22T12:22:38;101564.44;;;30.14;35.38
81107;BME280;70588;53.172;8.620;2023-06-22T12:25:04;101556.31;;;30.18;35.67
81107;BME280;70588;53.172;8.620;2023-06-22T12:27:30;101560.13;;;30.22;35.67
81107;BME280;70588;53.172;8.620;2023-06-22T12:29:56;101550.66;;;30.23;35.27
81107;BME280;70588;53.172;8.620;2023-06-22T12:32:21;101550.84;;;30.27;35.66
81107;BME280;70588;53.172;8.620;2023-06-22T12:34:46;101550.25;;;30.30;35.89
81107;BME280;70588;53.172;8.620;2023-06-22T12:37:12;101549.97;;;30.31;35.30
81107;BME280;70588;53.172;8.620;2023-06-22T12:39:39;101543.25;;;30.32;35.54
81107;BME280;70588;53.172;8.620;2023-06-22T12:42:05;101545.72;;;30.34;34.93
81107;BME280;70588;53.172;8.620;2023-06-22T12:44:33;101544.59;;;30.35;34.69
81107;BME280;70588;53.172;8.620;2023-06-22T12:46:59;101529.22;;;30.37;35.15
81107;BME280;70588;53.172;8.620;2023-06-22T12:49:24;101534.16;;;30.40;34.89
81107;BME280;70588;53.172;8.620;2023-06-22T12:51:49;101525.50;;;30.42;34.75
81107;BME280;70588;53.172;8.620;2023-06-22T12:54:15;101512.41;;;30.42;34.76
81107;BME280;70588;53.172;8.620;2023-06-22T12:56:40;101512.41;;;30.42;34.76